Time;durP1;ratioP1;P1;durP2;ratioP2;P2;SDS_P1;SDS_P2;PMS_P1;PMS_P2;Temp;Humidity;BMP_temperature;BMP_pressure;BME280_temperature;BME280_humidity;BME280_pressure;Samples;Min_cycle;Max_cycle;Signal;HPM_P1;HPM_P2
2023/04/23 00:02:01;;;;;;;7.05;2.10;;;10.60;99.90;;;;;;5109487;28;20477;-48
2023/04/23 00:04:32;;;;;;;6.45;2.22;;;10.40;99.90;;;;;;5110570;28;20503;-49
2023/04/23 00:07:01;;;;;;;4.38;2.45;;;10.30;99.90;;;;;;5113247;28;20039;-50
2023/04/23 00:09:31;;;;;;;4.57;2.20;;;10.20;99.90;;;;;;5101170;28;20058;-47
2023/04/23 00:11:59;;;;;;;7.18;3.28;;;10.10;99.90;;;;;;5109259;28;20557;-47
2023/04/23 00:14:26;;;;;;;4.13;2.72;;;10.00;99.90;;;;;;5109173;28;20055;-48
2023/04/23 00:16:52;;;;;;;3.50;2.63;;;10.00;99.90;;;;;;5110228;28;20118;-48
2023/04/23 00:19:19;;;;;;;5.43;3.00;;;10.00;99.90;;;;;;5116283;28;20064;-49
2023/04/23 00:21:46;;;;;;;5.97;2.90;;;10.10;99.90;;;;;;5115798;28;20084;-48
2023/04/23 00:24:13;;;;;;;5.68;3.08;;;10.10;99.90;;;;;;5117639;28;20765;-50
2023/04/23 00:26:39;;;;;;;4.25;2.95;;;10.10;99.90;;;;;;5118687;28;20084;-47
2023/04/23 00:29:06;;;;;;;7.05;3.22;;;10.20;99.90;;;;;;5104284;28;20499;-48
2023/04/23 00:31:33;;;;;;;3.97;2.60;;;10.20;99.90;;;;;;5118584;27;20080;-48
2023/04/23 00:34:00;;;;;;;4.15;2.17;;;10.10;99.90;;;;;;5126550;27;20086;-48
2023/04/23 00:36:27;;;;;;;6.97;2.58;;;10.10;99.90;;;;;;5119234;27;20027;-47
2023/04/23 00:38:54;;;;;;;5.60;2.63;;;10.00;99.90;;;;;;5113112;27;20043;-49
2023/04/23 00:41:22;;;;;;;6.75;2.72;;;9.90;99.90;;;;;;5113982;28;20035;-48
2023/04/23 00:43:51;;;;;;;5.10;2.53;;;9.80;99.90;;;;;;5095599;28;20097;-48
2023/04/23 00:46:18;;;;;;;7.20;2.47;;;9.80;99.90;;;;;;5112390;28;20134;-48
2023/04/23 00:48:46;;;;;;;4.95;3.20;;;9.80;99.90;;;;;;5092606;28;20075;-47
2023/04/23 00:51:15;;;;;;;4.47;2.90;;;9.70;99.90;;;;;;5119008;27;20032;-48
2023/04/23 00:53:42;;;;;;;7.72;3.53;;;9.70;99.90;;;;;;5112379;28;20044;-48
2023/04/23 00:56:09;;;;;;;6.30;2.88;;;9.70;99.90;;;;;;5114759;27;20625;-48
2023/04/23 00:58:37;;;;;;;6.78;3.30;;;10.00;99.90;;;;;;5116487;27;20040;-48
2023/04/23 01:01:04;;;;;;;9.75;3.50;;;9.80;99.90;;;;;;5109669;28;20081;-49
2023/04/23 01:03:34;;;;;;;4.28;3.10;;;9.90;99.90;;;;;;5112126;28;20105;-48
2023/04/23 01:06:02;;;;;;;4.68;3.22;;;9.90;99.90;;;;;;5096106;28;20048;-48
2023/04/23 01:08:31;;;;;;;5.40;3.50;;;9.90;99.90;;;;;;5111824;28;20035;-49
2023/04/23 01:10:58;;;;;;;6.03;3.10;;;9.90;99.90;;;;;;5113050;28;20117;-48
2023/04/23 01:13:28;;;;;;;4.45;3.15;;;10.00;99.90;;;;;;5096416;22;20067;-48
2023/04/23 01:15:55;;;;;;;6.43;3.55;;;10.00;99.90;;;;;;5072250;28;20044;-49
2023/04/23 01:18:23;;;;;;;6.05;3.47;;;10.00;99.90;;;;;;5073256;28;20143;-50
2023/04/23 01:20:50;;;;;;;4.85;2.72;;;9.90;99.90;;;;;;5074053;28;20048;-49
2023/04/23 01:23:17;;;;;;;;;;;9.80;99.90;;;;;;5069787;28;20043;-49
2023/04/23 01:25:44;;;;;;;4.95;2.40;;;9.80;99.90;;;;;;5067778;28;19920;-49
2023/04/23 01:28:11;;;;;;;6.32;2.72;;;9.70;99.90;;;;;;5052881;28;20530;-49
2023/04/23 01:30:39;;;;;;;;;;;9.60;99.90;;;;;;5071298;28;20044;-49
2023/04/23 01:33:06;;;;;;;5.78;2.80;;;9.50;99.90;;;;;;5051033;28;20405;-49
2023/04/23 01:35:34;;;;;;;;;;;9.50;99.90;;;;;;5072412;28;20067;-48
2023/04/23 01:38:02;;;;;;;10.32;3.17;;;9.40;99.90;;;;;;5053345;28;19947;-48
2023/04/23 01:40:29;;;;;;;4.88;2.95;;;9.40;99.90;;;;;;5053979;28;20048;-49
2023/04/23 01:42:57;;;;;;;6.20;2.70;;;9.50;99.90;;;;;;5050969;28;20036;-49
2023/04/23 01:45:24;;;;;;;7.28;3.03;;;9.50;99.90;;;;;;5054128;28;20501;-49
2023/04/23 01:47:51;;;;;;;4.60;2.70;;;9.50;99.90;;;;;;5066411;28;20037;-48
2023/04/23 01:50:22;;;;;;;5.97;3.47;;;9.50;99.90;;;;;;5045275;28;20049;-48
2023/04/23 01:52:48;;;;;;;5.38;3.13;;;9.40;99.90;;;;;;5052475;28;20131;-50
2023/04/23 01:55:17;;;;;;;5.68;2.80;;;9.40;99.90;;;;;;5048862;28;20488;-48
2023/04/23 01:57:45;;;;;;;5.80;2.50;;;9.40;99.90;;;;;;5071364;28;20493;-48
2023/04/23 02:00:13;;;;;;;5.55;2.95;;;9.30;99.90;;;;;;5069455;28;20489;-51
2023/04/23 02:02:42;;;;;;;5.93;2.30;;;9.30;99.90;;;;;;5071977;28;20048;-48
2023/04/23 02:05:17;;;;;;;9.45;2.92;;;9.30;99.90;;;;;;5051254;28;20066;-48
2023/04/23 02:07:46;;;;;;;4.78;2.80;;;9.30;99.90;;;;;;5053757;28;20047;-48
2023/04/23 02:10:13;;;;;;;8.32;3.08;;;9.30;99.90;;;;;;5051124;28;20047;-49
2023/04/23 02:12:41;;;;;;;6.60;2.55;;;9.30;99.90;;;;;;5051975;28;20074;-48
2023/04/23 02:15:09;;;;;;;5.40;2.30;;;9.30;99.90;;;;;;5068893;28;20116;-48
2023/04/23 02:17:38;;;;;;;6.55;2.60;;;9.20;99.90;;;;;;5053289;28;20072;-49
2023/04/23 02:20:08;;;;;;;8.77;2.70;;;9.20;99.90;;;;;;5068888;28;20051;-48
2023/04/23 02:22:38;;;;;;;5.10;2.65;;;9.20;99.90;;;;;;5079831;28;20116;-49
2023/04/23 02:25:06;;;;;;;3.97;2.45;;;9.20;99.90;;;;;;5070859;28;20044;-51
2023/04/23 02:27:33;;;;;;;7.97;3.70;;;9.20;99.90;;;;;;5065236;28;20033;-48
2023/04/23 02:30:01;;;;;;;6.82;2.80;;;9.20;99.90;;;;;;5053122;28;20552;-48
2023/04/23 02:32:27;;;;;;;6.70;2.80;;;9.20;99.90;;;;;;5091389;28;20489;-49
2023/04/23 02:34:55;;;;;;;5.10;2.58;;;9.20;99.90;;;;;;5072574;28;20055;-48
2023/04/23 02:37:22;;;;;;;;;;;9.20;99.90;;;;;;5051768;28;20527;-48
2023/04/23 02:39:48;;;;;;;5.50;2.35;;;9.20;99.90;;;;;;5052094;28;19920;-48
2023/04/23 02:42:15;;;;;;;5.32;2.83;;;9.20;99.90;;;;;;5070942;28;20056;-48
2023/04/23 02:44:42;;;;;;;5.90;2.78;;;9.10;99.90;;;;;;5052085;28;20521;-49
2023/04/23 02:47:09;;;;;;;4.38;2.75;;;9.50;99.90;;;;;;5052344;28;20468;-50
2023/04/23 02:49:35;;;;;;;6.30;2.65;;;9.10;99.90;;;;;;5069930;28;20048;-48
2023/04/23 02:52:03;;;;;;;3.05;2.33;;;9.10;99.90;;;;;;5070893;28;20060;-50
2023/04/23 02:54:31;;;;;;;4.45;2.80;;;9.10;99.90;;;;;;5049859;28;20052;-49
2023/04/23 02:56:58;;;;;;;7.13;3.15;;;9.00;99.90;;;;;;5052958;28;20044;-49
2023/04/23 02:59:24;;;;;;;4.75;2.78;;;9.00;99.90;;;;;;5048738;28;20036;-49
2023/04/23 03:01:51;;;;;;;9.52;2.90;;;9.10;99.90;;;;;;5049484;28;20040;-49
2023/04/23 03:04:19;;;;;;;8.48;2.40;;;9.10;99.90;;;;;;5051032;28;20071;-49
2023/04/23 03:06:46;;;;;;;3.50;2.67;;;9.10;99.90;;;;;;5052975;28;20413;-48
2023/04/23 03:09:14;;;;;;;4.25;2.83;;;9.00;99.90;;;;;;5053378;28;20052;-48
2023/04/23 03:11:40;;;;;;;4.70;2.80;;;9.00;99.90;;;;;;5064652;28;20135;-48
2023/04/23 03:14:09;;;;;;;5.45;2.97;;;9.00;99.90;;;;;;5058042;28;20048;-48
2023/04/23 03:16:36;;;;;;;4.22;2.90;;;8.90;99.90;;;;;;5052783;28;20086;-48
2023/04/23 03:19:04;;;;;;;6.25;3.05;;;8.70;99.90;;;;;;5051614;28;20110;-49
2023/04/23 03:21:31;;;;;;;5.43;3.08;;;8.70;99.90;;;;;;5052942;28;20082;-49
2023/04/23 03:23:58;;;;;;;11.88;3.08;;;8.70;99.90;;;;;;5059375;28;20044;-48
2023/04/23 03:26:24;;;;;;;5.07;2.53;;;8.60;99.90;;;;;;5065422;28;20044;-48
2023/04/23 03:28:51;;;;;;;8.63;2.80;;;8.60;99.90;;;;;;5053127;28;20044;-48
2023/04/23 03:31:18;;;;;;;5.90;2.78;;;8.60;99.90;;;;;;5052341;28;20056;-48
2023/04/23 03:33:45;;;;;;;6.30;2.58;;;8.70;99.90;;;;;;5069766;28;20493;-49
2023/04/23 03:36:12;;;;;;;5.05;2.53;;;8.80;99.90;;;;;;5052326;28;20045;-49
2023/04/23 03:38:39;;;;;;;4.90;2.20;;;8.90;99.90;;;;;;5051834;28;20044;-48
2023/04/23 03:41:06;;;;;;;8.20;3.45;;;9.00;99.90;;;;;;5036901;28;20094;-48
2023/04/23 03:43:33;;;;;;;4.95;3.20;;;9.00;99.90;;;;;;5044826;28;20041;-48
2023/04/23 03:46:02;;;;;;;5.35;3.00;;;9.10;99.90;;;;;;5067388;28;20127;-49
2023/04/23 03:48:33;;;;;;;5.20;3.00;;;9.20;99.90;;;;;;5053497;28;20075;-48
2023/04/23 03:51:04;;;;;;;8.68;2.30;;;9.30;99.90;;;;;;5067055;28;20102;-48
2023/04/23 03:53:47;;;;;;;7.60;2.70;;;9.30;99.90;;;;;;5052005;28;20048;-48
2023/04/23 03:56:32;;;;;;;6.22;2.40;;;9.30;99.90;;;;;;5049439;28;20040;-48
2023/04/23 03:59:15;;;;;;;6.85;2.85;;;9.20;99.90;;;;;;5051324;28;20079;-50
2023/04/23 04:01:44;;;;;;;4.07;2.55;;;9.30;99.90;;;;;;5046685;28;20039;-50
2023/04/23 04:04:11;;;;;;;5.45;2.90;;;9.30;99.90;;;;;;5069742;28;20052;-49
2023/04/23 04:06:38;;;;;;;5.15;3.28;;;9.30;99.90;;;;;;5052631;28;20076;-50
2023/04/23 04:09:06;;;;;;;5.35;3.17;;;9.30;99.90;;;;;;5072062;28;20053;-48
2023/04/23 04:11:34;;;;;;;6.72;3.88;;;9.30;99.90;;;;;;5073254;28;20395;-49
2023/04/23 04:14:01;;;;;;;10.57;3.50;;;9.30;99.90;;;;;;5055634;28;20110;-49
2023/04/23 04:16:27;;;;;;;7.93;4.03;;;9.30;99.90;;;;;;5073335;28;20087;-48
2023/04/23 04:18:54;;;;;;;5.90;3.45;;;9.30;99.90;;;;;;5067472;28;20048;-48
2023/04/23 04:21:22;;;;;;;12.27;3.30;;;9.30;99.90;;;;;;5055099;28;20045;-48
2023/04/23 04:23:49;;;;;;;6.72;3.03;;;9.30;99.90;;;;;;5073560;28;20406;-48
2023/04/23 04:26:17;;;;;;;;;;;9.40;99.90;;;;;;5057760;28;20032;-48
2023/04/23 04:28:44;;;;;;;12.35;3.45;;;9.40;99.90;;;;;;5085074;28;19934;-48
2023/04/23 04:31:13;;;;;;;5.57;3.38;;;9.30;99.90;;;;;;5073072;28;20056;-49
2023/04/23 04:33:40;;;;;;;4.97;2.78;;;9.20;99.90;;;;;;5073258;28;20083;-48
2023/04/23 04:36:09;;;;;;;13.02;3.33;;;9.10;99.90;;;;;;5072964;28;20048;-48
2023/04/23 04:38:36;;;;;;;12.50;3.30;;;9.00;99.90;;;;;;5069946;28;20208;-48
2023/04/23 04:41:03;;;;;;;6.20;3.17;;;9.00;99.90;;;;;;5071053;28;20044;-49
2023/04/23 04:43:31;;;;;;;6.45;3.10;;;9.10;99.90;;;;;;5081880;28;20385;-48
2023/04/23 04:45:58;;;;;;;7.53;3.15;;;9.00;99.90;;;;;;5056510;28;20044;-48
2023/04/23 04:48:25;;;;;;;7.38;3.30;;;9.00;99.90;;;;;;5068407;28;20044;-49
2023/04/23 04:50:52;;;;;;;7.82;3.95;;;9.00;99.90;;;;;;5081313;28;20036;-49
2023/04/23 04:53:19;;;;;;;5.88;3.53;;;9.10;99.90;;;;;;5091068;28;20044;-50
2023/04/23 04:55:45;;;;;;;9.45;3.42;;;9.10;99.90;;;;;;5069444;28;20036;-49
2023/04/23 04:58:13;;;;;;;8.07;4.20;;;9.20;99.90;;;;;;5071690;28;20040;-48
2023/04/23 05:00:40;;;;;;;8.25;3.55;;;9.20;99.90;;;;;;5063452;28;20079;-49
2023/04/23 05:03:06;;;;;;;10.40;3.70;;;9.30;99.90;;;;;;5070576;28;20509;-48
2023/04/23 05:05:34;;;;;;;7.30;3.70;;;9.40;99.90;;;;;;5071936;28;20123;-48
2023/04/23 05:08:01;;;;;;;7.72;4.13;;;9.40;99.90;;;;;;5037370;28;20052;-48
2023/04/23 05:10:28;;;;;;;7.97;3.50;;;9.60;99.90;;;;;;5074942;28;20048;-49
2023/04/23 05:12:56;;;;;;;7.85;3.38;;;9.60;99.90;;;;;;5089109;28;20043;-49
2023/04/23 05:15:23;;;;;;;5.68;3.17;;;9.70;99.90;;;;;;5088430;28;20052;-48
2023/04/23 05:17:52;;;;;;;5.80;3.03;;;9.80;99.90;;;;;;5066717;28;20037;-48
2023/04/23 05:20:20;;;;;;;5.13;3.25;;;9.90;99.90;;;;;;5072537;28;20063;-50
2023/04/23 05:22:47;;;;;;;9.48;3.08;;;9.90;99.90;;;;;;5071784;28;20412;-48
2023/04/23 05:25:14;;;;;;;4.53;2.90;;;9.90;99.90;;;;;;5074909;28;20549;-49
2023/04/23 05:27:40;;;;;;;10.27;3.65;;;10.00;99.90;;;;;;5065794;28;20116;-50
2023/04/23 05:30:09;;;;;;;5.80;4.10;;;10.00;99.90;;;;;;5082490;28;20644;-49
2023/04/23 05:32:36;;;;;;;14.00;5.93;;;10.00;99.90;;;;;;5068722;28;20071;-49
2023/04/23 05:35:04;;;;;;;15.20;6.97;;;10.00;99.90;;;;;;5068844;28;20055;-49
2023/04/23 05:37:31;;;;;;;16.35;6.13;;;10.10;99.90;;;;;;5075760;28;20510;-48
2023/04/23 05:39:58;;;;;;;19.55;6.22;;;10.10;99.90;;;;;;5068702;28;20072;-48
2023/04/23 05:42:25;;;;;;;11.95;6.30;;;10.20;99.90;;;;;;5071391;28;20071;-48
2023/04/23 05:44:51;;;;;;;11.85;6.07;;;10.20;99.90;;;;;;5071694;28;20048;-49
2023/04/23 05:47:18;;;;;;;13.27;5.03;;;10.30;99.90;;;;;;5053869;28;20041;-48
2023/04/23 05:49:45;;;;;;;9.52;4.53;;;10.40;99.90;;;;;;5070297;28;20052;-50
2023/04/23 05:52:12;;;;;;;7.57;3.63;;;10.40;99.90;;;;;;5083516;28;20165;-52
2023/04/23 05:54:38;;;;;;;5.72;3.50;;;10.50;99.90;;;;;;5085933;28;20126;-49
2023/04/23 05:57:06;;;;;;;7.32;3.42;;;10.60;99.90;;;;;;5069719;28;20504;-49
2023/04/23 05:59:33;;;;;;;5.60;2.85;;;10.60;99.90;;;;;;5071692;28;20063;-48
2023/04/23 06:01:59;;;;;;;7.10;2.90;;;10.70;99.90;;;;;;5070298;28;20044;-49
2023/04/23 06:04:26;;;;;;;6.32;3.40;;;10.80;99.90;;;;;;5062746;28;20090;-48
2023/04/23 06:06:53;;;;;;;8.90;4.03;;;10.90;99.90;;;;;;5070914;28;20052;-48
2023/04/23 06:09:20;;;;;;;6.97;4.50;;;11.00;99.90;;;;;;5071297;28;20049;-48
2023/04/23 06:11:49;;;;;;;10.93;4.15;;;11.20;99.90;;;;;;5069908;28;20102;-49
2023/04/23 06:14:16;;;;;;;9.30;3.70;;;11.30;99.90;;;;;;5083315;28;20093;-48
2023/04/23 06:16:42;;;;;;;6.70;3.92;;;11.40;99.90;;;;;;5091029;28;20105;-48
2023/04/23 06:19:10;;;;;;;9.98;4.95;;;11.40;99.90;;;;;;5091596;28;20179;-49
2023/04/23 06:21:37;;;;;;;9.68;4.10;;;11.40;99.90;;;;;;5067020;28;20046;-49
2023/04/23 06:24:06;;;;;;;8.85;4.90;;;11.40;99.90;;;;;;5071290;28;20440;-50
2023/04/23 06:26:33;;;;;;;10.70;4.80;;;11.30;99.90;;;;;;5070778;28;20052;-48
2023/04/23 06:29:08;;;;;;;5.80;4.20;;;11.20;99.90;;;;;;5047929;28;20083;-49
2023/04/23 06:31:40;;;;;;;10.80;4.55;;;11.10;99.90;;;;;;5053166;28;20094;-48
2023/04/23 06:34:07;;;;;;;;;;;11.10;99.90;;;;;;5065586;28;20044;-49
2023/04/23 06:36:34;;;;;;;9.70;5.15;;;11.10;99.90;;;;;;5071386;28;20327;-49
2023/04/23 06:39:01;;;;;;;7.80;5.18;;;11.00;99.90;;;;;;5069167;28;20471;-50
2023/04/23 06:41:27;;;;;;;6.87;5.03;;;11.00;99.90;;;;;;5071715;28;20036;-49
2023/04/23 06:44:14;;;;;;;10.98;5.45;;;10.90;99.90;;;;;;5059999;28;20321;-49
2023/04/23 06:46:50;;;;;;;14.90;6.78;;;10.80;99.90;;;;;;5088215;28;20047;-48
2023/04/23 06:49:17;;;;;;;10.27;4.93;;;10.80;99.90;;;;;;5058375;28;20040;-48
2023/04/23 06:51:44;;;;;;;6.68;4.10;;;11.00;99.90;;;;;;5071309;28;20036;-49
2023/04/23 06:54:10;;;;;;;9.15;4.30;;;11.20;99.90;;;;;;5051965;28;20044;-49
2023/04/23 06:56:37;;;;;;;9.75;5.25;;;11.30;99.90;;;;;;5060660;28;20091;-51
2023/04/23 06:59:05;;;;;;;8.68;4.35;;;11.60;99.90;;;;;;5067919;28;20500;-48
2023/04/23 07:01:34;;;;;;;10.30;4.45;;;11.80;99.90;;;;;;5067458;28;20062;-48
2023/04/23 07:04:01;;;;;;;9.18;3.95;;;11.90;99.90;;;;;;5079612;28;20033;-48
2023/04/23 07:06:28;;;;;;;10.55;4.60;;;12.00;99.90;;;;;;5070995;28;20067;-49
2023/04/23 07:08:54;;;;;;;9.82;5.03;;;12.10;99.90;;;;;;5078882;28;20100;-49
2023/04/23 07:11:21;;;;;;;7.93;4.22;;;12.10;99.90;;;;;;5084873;28;20053;-49
2023/04/23 07:18:23;;;;;;;7.28;4.20;;;12.40;99.90;;;;;;5079112;28;20309;-51
2023/04/23 07:20:49;;;;;;;8.05;4.30;;;12.50;99.90;;;;;;5082652;28;20062;-49
2023/04/23 07:23:16;;;;;;;6.85;4.00;;;12.50;99.90;;;;;;5092528;28;20035;-50
2023/04/23 07:25:43;;;;;;;7.25;3.95;;;12.80;99.90;;;;;;5111436;28;20047;-49
2023/04/23 07:28:09;;;;;;;6.93;3.85;;;12.90;99.90;;;;;;5099618;28;20048;-49
2023/04/23 07:30:36;;;;;;;6.72;3.17;;;13.20;99.90;;;;;;5088529;28;20036;-51
2023/04/23 07:33:03;;;;;;;10.77;3.63;;;13.40;99.90;;;;;;5107147;28;20057;-48
2023/04/23 07:35:30;;;;;;;5.35;3.47;;;13.70;99.90;;;;;;5109346;28;20477;-49
2023/04/23 07:37:57;;;;;;;5.88;3.33;;;13.90;99.90;;;;;;5086745;28;20525;-47
2023/04/23 07:40:24;;;;;;;8.23;3.67;;;14.10;99.90;;;;;;5080571;28;20044;-48
2023/04/23 07:42:51;;;;;;;3.83;2.80;;;14.30;99.90;;;;;;5100781;28;20488;-48
2023/04/23 07:45:18;;;;;;;7.22;3.67;;;14.70;99.90;;;;;;5088107;28;20463;-47
2023/04/23 07:47:48;;;;;;;;;;;14.90;99.90;;;;;;5093703;28;20040;-49
2023/04/23 07:50:15;;;;;;;5.75;3.00;;;15.00;99.90;;;;;;5086776;28;20018;-48
2023/04/23 07:52:41;;;;;;;6.18;2.58;;;14.90;99.90;;;;;;5093332;28;20082;-47
2023/04/23 07:55:08;;;;;;;4.50;2.30;;;14.90;99.90;;;;;;5093209;28;20036;-47
2023/04/23 07:57:35;;;;;;;4.85;2.58;;;14.90;99.90;;;;;;5098652;28;20063;-48
2023/04/23 08:00:03;;;;;;;4.28;2.63;;;14.80;99.90;;;;;;5110058;28;20047;-47
2023/04/23 08:02:37;;;;;;;3.90;2.42;;;14.60;99.90;;;;;;5105424;28;20039;-51
2023/04/23 08:05:05;;;;;;;5.97;2.83;;;14.60;99.90;;;;;;5113663;28;20050;-48
2023/04/23 08:07:32;;;;;;;5.13;2.75;;;14.50;99.90;;;;;;5105628;28;20042;-49
2023/04/23 08:10:03;;;;;;;5.93;2.25;;;14.40;99.90;;;;;;5095108;28;20043;-48
2023/04/23 08:12:29;;;;;;;4.40;2.45;;;14.60;99.90;;;;;;5094327;28;20040;-50
2023/04/23 08:14:56;;;;;;;3.45;2.22;;;14.90;99.90;;;;;;5097018;28;20063;-48
2023/04/23 08:17:31;;;;;;;3.25;2.10;;;15.10;99.90;;;;;;5089676;28;20071;-47
2023/04/23 08:19:58;;;;;;;3.65;2.63;;;15.20;99.90;;;;;;5094778;28;20066;-49
2023/04/23 08:22:24;;;;;;;7.47;2.72;;;15.20;99.90;;;;;;5106211;28;20040;-51
2023/04/23 08:24:51;;;;;;;3.13;2.03;;;15.30;99.90;;;;;;5110749;28;20104;-49
2023/04/23 08:27:18;;;;;;;3.80;2.10;;;15.60;99.90;;;;;;5094088;28;20451;-49
2023/04/23 08:29:45;;;;;;;5.07;2.00;;;15.80;99.90;;;;;;5092361;28;20067;-48
2023/04/23 08:32:12;;;;;;;3.00;2.33;;;15.90;99.90;;;;;;5085202;28;20100;-50
2023/04/23 08:34:38;;;;;;;2.80;2.25;;;15.80;99.90;;;;;;5108420;28;20136;-47
2023/04/23 08:37:05;;;;;;;6.28;2.47;;;15.80;99.90;;;;;;5100683;28;20044;-47
2023/04/23 08:39:42;;;;;;;4.18;2.17;;;15.70;99.90;;;;;;5106887;28;20040;-48
2023/04/23 08:42:17;;;;;;;4.93;2.10;;;15.60;99.90;;;;;;5075313;28;20062;-51
2023/04/23 08:44:45;;;;;;;3.28;2.30;;;15.60;99.90;;;;;;5090771;28;20052;-47
2023/04/23 08:47:16;;;;;;;4.55;2.33;;;15.50;99.90;;;;;;5100513;28;20092;-47
2023/04/23 08:49:45;;;;;;;3.90;2.72;;;15.30;99.90;;;;;;5103394;28;20523;-50
2023/04/23 08:52:18;;;;;;;7.78;2.97;;;15.20;99.90;;;;;;5093156;28;20082;-47
2023/04/23 08:54:47;;;;;;;4.80;2.50;;;15.00;99.90;;;;;;5097175;28;20032;-48
2023/04/23 08:57:16;;;;;;;4.45;2.28;;;14.90;99.90;;;;;;5113439;28;20676;-49
2023/04/23 08:59:45;;;;;;;4.03;2.47;;;14.80;99.90;;;;;;5097583;28;20054;-47
2023/04/23 09:02:13;;;;;;;2.70;2.30;;;14.90;99.90;;;;;;5083928;28;20573;-49
2023/04/23 09:04:40;;;;;;;6.07;2.33;;;15.10;99.90;;;;;;5083255;28;20051;-47
2023/04/23 09:07:10;;;;;;;6.28;2.58;;;15.20;99.90;;;;;;5111910;28;20052;-47
2023/04/23 09:09:38;;;;;;;5.95;2.28;;;15.30;99.90;;;;;;5097421;28;20089;-48
2023/04/23 09:12:07;;;;;;;3.67;2.20;;;15.50;99.90;;;;;;5113113;28;20155;-48
2023/04/23 09:14:34;;;;;;;2.90;1.85;;;15.70;99.90;;;;;;5096004;28;20044;-51
2023/04/23 09:17:01;;;;;;;4.90;2.63;;;15.70;99.90;;;;;;5089368;28;20045;-49
2023/04/23 09:19:29;;;;;;;4.22;2.30;;;15.60;99.90;;;;;;5108993;28;20515;-47
2023/04/23 09:21:57;;;;;;;3.55;2.63;;;15.70;99.90;;;;;;5112635;28;20529;-48
2023/04/23 09:24:25;;;;;;;2.95;2.05;;;15.80;99.90;;;;;;5092267;28;20109;-47
2023/04/23 09:26:52;;;;;;;4.72;2.88;;;16.00;99.90;;;;;;5097324;28;20040;-48
2023/04/23 09:29:22;;;;;;;2.70;2.05;;;16.20;99.90;;;;;;5090333;28;20044;-48
2023/04/23 09:31:51;;;;;;;3.30;2.08;;;16.30;99.90;;;;;;5092897;28;20040;-49
2023/04/23 09:34:19;;;;;;;3.58;2.30;;;16.30;99.90;;;;;;5085824;28;20035;-46
2023/04/23 09:36:49;;;;;;;2.58;2.00;;;16.30;99.90;;;;;;5083463;28;20060;-48
2023/04/23 09:39:18;;;;;;;3.50;2.47;;;16.40;99.90;;;;;;5072453;28;20032;-49
2023/04/23 09:41:45;;;;;;;5.85;2.40;;;16.50;99.90;;;;;;5083940;28;20396;-49
2023/04/23 09:44:21;;;;;;;3.45;2.25;;;16.40;99.90;;;;;;5081628;28;20044;-47
2023/04/23 09:46:48;;;;;;;3.97;2.30;;;16.40;99.90;;;;;;5080053;28;21490;-47
2023/04/23 09:49:15;;;;;;;4.50;2.45;;;16.40;99.90;;;;;;5091539;28;20039;-46
2023/04/23 09:51:43;;;;;;;5.20;2.60;;;16.60;99.90;;;;;;5106545;28;20044;-50
2023/04/23 09:54:15;;;;;;;4.35;3.45;;;16.60;99.90;;;;;;5092621;28;20052;-47
2023/04/23 09:56:43;;;;;;;7.75;2.90;;;16.60;99.90;;;;;;5088576;28;20032;-47
2023/04/23 09:59:24;;;;;;;5.10;3.20;;;16.60;99.90;;;;;;5111205;28;20450;-47
2023/04/23 10:02:12;;;;;;;5.82;2.85;;;16.60;99.90;;;;;;5099198;28;20500;-50
2023/04/23 10:04:39;;;;;;;4.70;2.83;;;16.60;99.90;;;;;;5088924;28;20050;-48
2023/04/23 10:07:12;;;;;;;5.82;3.03;;;16.50;99.90;;;;;;5100698;28;20058;-48
2023/04/23 10:09:46;;;;;;;4.40;2.92;;;16.40;99.90;;;;;;5090146;28;20097;-47
2023/04/23 10:12:13;;;;;;;7.05;3.17;;;16.30;99.90;;;;;;5105783;28;20040;-47
2023/04/23 10:15:02;;;;;;;4.78;3.53;;;16.20;99.90;;;;;;5110845;28;20561;-46
2023/04/23 10:17:29;;;;;;;5.43;3.38;;;16.20;99.90;;;;;;5093832;28;20508;-49
2023/04/23 10:19:59;;;;;;;7.10;4.00;;;16.20;99.90;;;;;;5086806;28;20036;-47
2023/04/23 10:22:28;;;;;;;5.93;3.67;;;16.10;99.90;;;;;;5084307;28;20059;-46
2023/04/23 10:24:59;;;;;;;5.00;3.20;;;16.10;99.90;;;;;;5075946;28;20044;-50
2023/04/23 10:27:29;;;;;;;6.82;3.60;;;16.20;99.90;;;;;;5090642;28;20036;-47
2023/04/23 10:30:16;;;;;;;4.85;3.80;;;16.30;99.90;;;;;;5101218;28;20043;-47
2023/04/23 10:32:43;;;;;;;6.55;4.50;;;16.30;99.90;;;;;;5091389;28;20036;-47
2023/04/23 10:35:10;;;;;;;3.72;3.08;;;16.40;99.90;;;;;;5096648;28;20071;-48
2023/04/23 10:37:38;;;;;;;6.45;3.53;;;16.40;99.90;;;;;;5047786;28;20089;-51
2023/04/23 10:40:08;;;;;;;;;;;16.40;99.90;;;;;;5085587;28;20041;-51
2023/04/23 10:42:35;;;;;;;7.07;4.00;;;16.40;99.90;;;;;;5082202;28;20011;-48
2023/04/23 10:45:11;;;;;;;6.15;4.40;;;16.60;99.90;;;;;;5085822;28;20500;-47
2023/04/23 10:47:51;;;;;;;4.68;4.13;;;16.60;99.90;;;;;;5079290;28;20090;-47
2023/04/23 10:50:23;;;;;;;5.47;4.07;;;16.50;99.90;;;;;;5081508;28;20462;-47
2023/04/23 10:52:52;;;;;;;7.78;4.10;;;16.40;99.90;;;;;;5083494;28;20040;-47
2023/04/23 10:55:22;;;;;;;5.20;3.53;;;16.30;99.90;;;;;;5085099;28;20047;-47
2023/04/23 10:57:58;;;;;;;6.72;4.05;;;16.40;99.90;;;;;;5090835;28;20048;-48
2023/04/23 11:00:49;;;;;;;5.90;4.07;;;16.50;99.90;;;;;;5088393;28;20058;-47
2023/04/23 11:03:34;;;;;;;4.47;3.65;;;16.60;99.90;;;;;;5090744;28;20047;-51
2023/04/23 11:06:05;;;;;;;8.82;3.80;;;16.90;99.90;;;;;;5111393;28;20040;-50
2023/04/23 11:08:35;;;;;;;8.73;4.00;;;17.00;99.90;;;;;;5101068;28;20044;-47
2023/04/23 11:11:07;;;;;;;9.38;4.15;;;16.90;99.90;;;;;;5099263;28;20048;-49
2023/04/23 11:13:34;;;;;;;7.22;3.63;;;16.90;99.90;;;;;;5093350;28;20076;-47
2023/04/23 11:16:20;;;;;;;5.80;3.85;;;17.00;99.90;;;;;;5091398;28;20056;-50
2023/04/23 11:19:17;;;;;;;4.88;3.65;;;17.10;99.90;;;;;;5081268;28;20450;-49
2023/04/23 11:22:07;;;;;;;4.05;3.17;;;17.00;99.90;;;;;;5095685;28;20052;-46
2023/04/23 11:24:41;;;;;;;8.25;4.20;;;17.20;99.90;;;;;;5087690;28;20462;-51
2023/04/23 11:27:13;;;;;;;4.35;3.47;;;17.30;99.90;;;;;;5080000;28;20052;-48
2023/04/23 11:29:42;;;;;;;4.55;3.63;;;17.30;99.90;;;;;;5078963;28;20037;-48
2023/04/23 11:32:12;;;;;;;8.32;4.00;;;17.50;99.90;;;;;;5069493;28;20075;-48
2023/04/23 11:34:41;;;;;;;5.32;3.60;;;17.70;99.90;;;;;;5078428;28;20036;-48
2023/04/23 11:37:10;;;;;;;4.25;3.10;;;17.90;99.90;;;;;;5080676;28;20037;-48
2023/04/23 11:39:39;;;;;;;5.78;3.25;;;18.00;99.90;;;;;;5081828;28;20036;-50
2023/04/23 11:42:10;;;;;;;4.78;3.60;;;18.10;99.90;;;;;;5084712;28;20036;-49
2023/04/23 11:44:39;;;;;;;6.55;3.28;;;18.20;99.90;;;;;;5075430;28;20095;-48
2023/04/23 11:47:13;;;;;;;4.90;3.67;;;18.30;99.90;;;;;;5086469;28;20052;-48
2023/04/23 11:49:42;;;;;;;6.78;3.67;;;18.20;99.90;;;;;;5087963;28;20408;-51
2023/04/23 11:52:10;;;;;;;14.45;4.03;;;18.20;99.90;;;;;;5088750;28;20127;-49
2023/04/23 11:54:40;;;;;;;7.45;3.42;;;18.20;99.90;;;;;;5088793;28;20086;-50
2023/04/23 11:57:07;;;;;;;4.57;3.67;;;18.10;99.90;;;;;;5089123;28;20121;-49
2023/04/23 11:59:34;;;;;;;7.55;3.88;;;18.00;99.90;;;;;;5089616;28;20032;-49
2023/04/23 12:02:00;;;;;;;5.88;4.60;;;18.10;99.90;;;;;;5088978;28;20032;-49
2023/04/23 12:04:29;;;;;;;5.93;3.65;;;18.30;99.90;;;;;;5089789;28;20124;-48
2023/04/23 12:06:57;;;;;;;6.75;4.30;;;18.30;99.90;;;;;;5089015;28;20062;-48
2023/04/23 12:09:26;;;;;;;5.55;4.25;;;18.30;99.90;;;;;;5071454;28;20056;-47
2023/04/23 12:11:53;;;;;;;5.95;3.80;;;18.20;99.90;;;;;;5086856;28;20036;-47
2023/04/23 12:14:27;;;;;;;5.55;3.88;;;18.20;99.90;;;;;;5089734;28;20522;-48
2023/04/23 12:16:55;;;;;;;6.28;4.05;;;18.10;99.90;;;;;;5089141;28;20054;-47
2023/04/23 12:19:28;;;;;;;4.90;3.67;;;18.00;99.90;;;;;;5086921;28;20036;-48
2023/04/23 12:22:00;;;;;;;6.18;4.13;;;18.00;99.90;;;;;;5088988;28;20036;-49
2023/04/23 12:24:44;;;;;;;7.50;4.75;;;18.20;99.90;;;;;;5089546;28;20119;-48
2023/04/23 12:27:14;;;;;;;5.70;4.15;;;18.20;99.90;;;;;;5088765;28;20043;-51
2023/04/23 12:29:41;;;;;;;6.03;4.20;;;18.10;99.90;;;;;;5092339;28;20044;-49
2023/04/23 12:32:10;;;;;;;6.30;4.38;;;17.90;99.90;;;;;;5092704;28;20087;-48
2023/04/23 12:34:51;;;;;;;7.05;4.18;;;17.70;99.90;;;;;;5089709;28;20043;-48
2023/04/23 12:37:29;;;;;;;5.28;4.15;;;17.70;99.90;;;;;;5090512;28;20058;-49
2023/04/23 12:39:58;;;;;;;9.98;3.92;;;17.90;99.90;;;;;;5089110;28;20024;-48
2023/04/23 12:42:25;;;;;;;7.63;4.57;;;18.00;99.90;;;;;;5093556;28;20446;-48
2023/04/23 12:44:54;;;;;;;7.72;4.43;;;18.10;99.90;;;;;;5092269;28;20507;-49
2023/04/23 12:47:21;;;;;;;7.90;3.92;;;18.30;99.90;;;;;;5092138;28;20039;-50
2023/04/23 12:49:51;;;;;;;8.55;4.20;;;18.30;99.90;;;;;;5091700;28;20119;-47
2023/04/23 12:52:19;;;;;;;5.03;3.80;;;18.30;99.90;;;;;;5090977;28;20043;-51
2023/04/23 12:54:50;;;;;;;;;;;18.40;99.90;;;;;;5091678;28;20553;-48
2023/04/23 12:57:21;;;;;;;7.30;3.95;;;18.30;99.90;;;;;;5090469;28;19927;-49
2023/04/23 12:59:48;;;;;;;6.95;3.75;;;18.20;99.90;;;;;;5091753;28;20070;-48
2023/04/23 13:02:15;;;;;;;8.85;4.00;;;18.30;99.90;;;;;;5092791;28;20032;-48
2023/04/23 13:04:41;;;;;;;5.15;4.18;;;18.30;99.90;;;;;;5089541;28;20040;-49
2023/04/23 13:07:08;;;;;;;8.00;3.42;;;18.40;99.90;;;;;;5092665;28;20065;-48